Time;durP1;ratioP1;P1;durP2;ratioP2;P2;SDS_P1;SDS_P2;PMS_P1;PMS_P2;Temp;Humidity;BMP_temperature;BMP_pressure;BME280_temperature;BME280_humidity;BME280_pressure;Samples;Min_cycle;Max_cycle;Signal;HPM_P1;HPM_P2
2021/12/03 00:00:51;;;;;;;11.70;5.60;;;;;;;7.65;60.32;99558.15;117334;1186;21854;-55
2021/12/03 00:03:20;;;;;;;9.90;4.80;;;;;;;7.67;60.26;99555.67;117336;1186;22986;-58
2021/12/03 00:05:50;;;;;;;10.20;4.80;;;;;;;7.71;60.68;99553.71;117131;1184;21862;-56
2021/12/03 00:08:19;;;;;;;8.40;5.00;;;;;;;7.77;60.53;99550.29;117320;1186;23616;-56
2021/12/03 00:10:54;;;;;;;11.30;4.80;;;;;;;7.86;60.72;99551.05;117243;1186;21853;-57
2021/12/03 00:13:23;;;;;;;8.50;4.90;;;;;;;7.96;60.81;99551.60;117389;1180;21868;-57
2021/12/03 00:15:52;;;;;;;7.70;4.90;;;;;;;8.08;60.58;99551.96;117334;1186;22727;-58
2021/12/03 00:18:20;;;;;;;9.90;5.00;;;;;;;8.17;60.67;99546.21;117367;1183;21887;-55
2021/12/03 00:20:49;;;;;;;8.10;4.90;;;;;;;8.24;60.67;99550.11;117341;1185;21873;-58
2021/12/03 00:23:18;;;;;;;9.50;5.50;;;;;;;8.29;60.62;99547.59;117384;1185;21861;-55
2021/12/03 00:25:46;;;;;;;11.90;5.20;;;;;;;8.33;60.82;99550.86;117381;1184;23227;-57
2021/12/03 00:28:15;;;;;;;7.90;4.70;;;;;;;8.37;60.61;99549.92;117374;1186;21873;-55
2021/12/03 00:30:43;;;;;;;6.50;4.20;;;;;;;8.39;60.69;99545.33;117413;1185;21871;-57
2021/12/03 00:33:12;;;;;;;10.70;4.80;;;;;;;8.42;60.61;99548.61;117296;1184;21860;-55
2021/12/03 00:35:40;;;;;;;10.10;5.10;;;;;;;8.41;60.83;99548.61;117274;1183;23698;-55
2021/12/03 00:38:09;;;;;;;8.10;4.80;;;;;;;8.44;60.70;99546.83;117356;1186;21857;-56
2021/12/03 00:40:39;;;;;;;9.60;5.30;;;;;;;8.46;60.58;99542.42;117311;1186;21857;-58
2021/12/03 00:43:07;;;;;;;7.70;5.00;;;;;;;8.49;60.72;99531.73;117365;1184;21849;-57
2021/12/03 00:45:36;;;;;;;8.90;5.10;;;;;;;8.50;60.83;99529.98;117385;1185;22931;-54
2021/12/03 00:48:04;;;;;;;10.00;5.10;;;;;;;8.52;60.65;99524.52;117333;1183;23620;-55
2021/12/03 00:50:33;;;;;;;9.40;5.00;;;;;;;8.56;60.76;99524.28;117379;1185;23548;-54
2021/12/03 00:53:02;;;;;;;8.60;5.00;;;;;;;8.61;60.81;99525.76;117319;1185;21843;-57
2021/12/03 00:55:30;;;;;;;11.30;6.50;;;;;;;8.67;61.02;99519.02;117412;1182;23050;-56
2021/12/03 00:57:59;;;;;;;9.50;5.80;;;;;;;8.74;60.95;99518.18;117303;1185;21858;-57
2021/12/03 01:00:30;;;;;;;9.60;5.70;;;;;;;8.80;60.90;99513.87;117376;1185;23432;-57
2021/12/03 01:03:01;;;;;;;14.70;5.70;;;;;;;8.87;60.85;99510.94;117388;1185;21870;-55
2021/12/03 01:05:30;;;;;;;12.20;5.70;;;;;;;8.93;60.95;99503.30;117362;1185;21853;-55
2021/12/03 01:07:58;;;;;;;9.10;5.80;;;;;;;8.98;60.89;99497.44;117307;1185;23605;-55
2021/12/03 01:10:27;;;;;;;13.30;6.40;;;;;;;9.00;60.77;99496.68;117322;1184;21864;-56
2021/12/03 01:12:56;;;;;;;10.50;5.70;;;;;;;9.01;60.73;99493.88;117390;1185;23458;-58
2021/12/03 01:15:30;;;;;;;13.20;6.90;;;;;;;9.02;60.71;99495.10;117375;1186;21858;-57
2021/12/03 01:17:58;;;;;;;16.50;6.60;;;;;;;8.98;60.72;99493.41;117300;1185;22912;-55
2021/12/03 01:20:26;;;;;;;10.90;6.60;;;;;;;8.95;60.82;99496.10;117371;1183;21857;-55
2021/12/03 01:22:55;;;;;;;18.60;8.50;;;;;;;8.96;60.73;99493.09;117329;1185;21855;-56
2021/12/03 01:25:23;;;;;;;12.20;7.00;;;;;;;8.99;60.80;99494.96;117367;1185;21875;-57
2021/12/03 01:27:53;;;;;;;13.40;7.80;;;;;;;9.03;60.81;99494.72;117395;1183;23895;-55
2021/12/03 01:30:22;;;;;;;14.60;7.80;;;;;;;9.06;60.91;99492.89;117342;1182;24158;-54
2021/12/03 01:32:56;;;;;;;15.50;8.20;;;;;;;9.09;60.96;99489.16;117320;1186;21863;-57
2021/12/03 01:35:24;;;;;;;13.70;7.60;;;;;;;9.13;60.93;99479.64;117348;1185;21894;-56
2021/12/03 01:37:54;;;;;;;15.90;8.60;;;;;;;9.14;61.03;99476.98;117284;1181;21907;-57
2021/12/03 01:40:24;;;;;;;13.90;9.10;;;;;;;9.17;61.04;99474.13;117440;1184;23541;-55
2021/12/03 01:43:02;;;;;;;13.60;8.60;;;;;;;9.18;61.11;99473.40;117285;1189;21859;-58
2021/12/03 01:45:33;;;;;;;14.30;8.90;;;;;;;9.21;61.10;99472.63;117381;1185;21900;-56
2021/12/03 01:48:04;;;;;;;17.20;9.40;;;;;;;9.25;61.11;99468.54;117275;1185;21858;-55
2021/12/03 01:50:36;;;;;;;18.30;9.30;;;;;;;9.29;61.14;99460.58;117461;1184;21854;-58
2021/12/03 01:53:08;;;;;;;17.60;9.40;;;;;;;9.32;61.12;99461.90;117302;1184;23538;-58
2021/12/03 01:55:37;;;;;;;18.90;10.00;;;;;;;9.34;61.22;99462.02;117402;1185;22902;-58
2021/12/03 01:58:05;;;;;;;19.40;10.20;;;;;;;9.39;61.34;99464.39;117369;1185;21858;-55
2021/12/03 02:00:42;;;;;;;17.50;10.10;;;;;;;9.45;61.21;99467.58;117414;1185;22910;-59
2021/12/03 02:03:11;;;;;;;19.50;10.30;;;;;;;9.51;61.31;99464.09;117364;1184;24142;-58
2021/12/03 02:05:40;;;;;;;12.50;9.30;;;;;;;9.58;61.34;99461.66;117372;1185;21856;-58
2021/12/03 02:08:09;;;;;;;30.70;12.20;;;;;;;9.63;61.36;99453.87;117361;1184;21861;-55
2021/12/03 02:10:37;;;;;;;20.40;10.70;;;;;;;9.65;61.18;99452.77;117357;1185;22810;-55
2021/12/03 02:13:05;;;;;;;17.50;10.10;;;;;;;9.66;61.21;99446.25;117285;1186;21887;-55
2021/12/03 02:15:33;;;;;;;16.40;9.00;;;;;;;9.67;61.16;99447.98;117434;1185;23456;-58
2021/12/03 02:18:03;;;;;;;14.30;9.60;;;;;;;9.66;61.30;99449.05;117304;1186;23075;-55
2021/12/03 02:20:31;;;;;;;15.60;9.20;;;;;;;9.69;61.26;99447.61;117358;1185;21864;-58
2021/12/03 02:23:00;;;;;;;16.20;9.30;;;;;;;9.69;61.27;99444.45;117402;1185;23459;-59
2021/12/03 02:25:28;;;;;;;18.60;9.70;;;;;;;9.70;61.27;99438.11;117128;1185;21855;-55
2021/12/03 02:27:57;;;;;;;18.50;10.50;;;;;;;9.72;61.22;99436.11;117397;1185;21896;-56
2021/12/03 02:30:25;;;;;;;17.20;9.70;;;;;;;9.84;61.08;99434.27;117319;1185;21875;-58
2021/12/03 02:32:54;;;;;;;16.90;9.60;;;;;;;9.88;60.98;99431.38;117419;1185;21978;-59
2021/12/03 02:35:22;;;;;;;17.20;9.90;;;;;;;9.87;61.07;99426.48;117420;1186;22922;-58
2021/12/03 02:37:51;;;;;;;16.30;8.80;;;;;;;9.88;61.10;99427.52;117312;1185;21832;-59
2021/12/03 02:40:20;;;;;;;13.70;9.40;;;;;;;9.90;60.97;99428.69;117396;1185;21855;-60
2021/12/03 02:42:48;;;;;;;25.50;11.20;;;;;;;9.94;60.98;99431.20;117357;1184;23458;-60
2021/12/03 02:45:17;;;;;;;18.50;10.50;;;;;;;9.93;60.83;99434.73;117352;1184;21860;-60
2021/12/03 02:47:45;;;;;;;20.50;9.90;;;;;;;9.86;60.89;99436.84;117319;1186;21858;-59
2021/12/03 02:50:13;;;;;;;18.40;8.90;;;;;;;9.77;60.74;99437.23;117285;1186;21866;-60
2021/12/03 02:52:44;;;;;;;18.90;8.90;;;;;;;9.69;60.81;99438.13;117347;1186;21864;-56
2021/12/03 02:55:13;;;;;;;16.40;8.60;;;;;;;9.61;60.92;99438.65;117440;1184;22844;-56
2021/12/03 02:57:41;;;;;;;15.10;8.70;;;;;;;9.58;60.89;99437.52;117315;1183;21869;-56
2021/12/03 03:00:13;;;;;;;13.10;8.40;;;;;;;9.54;60.96;99433.21;117310;1184;21856;-59
2021/12/03 03:02:41;;;;;;;12.70;7.70;;;;;;;9.52;60.91;99439.03;117317;1185;21855;-56
2021/12/03 03:05:11;;;;;;;16.10;8.40;;;;;;;9.53;61.00;99432.70;117401;1185;21855;-60
2021/12/03 03:07:39;;;;;;;12.80;8.20;;;;;;;9.53;60.95;99431.12;117371;1184;23063;-55
2021/12/03 03:10:24;;;;;;;15.20;7.80;;;;;;;9.56;60.98;99434.23;117268;1182;21859;-60
2021/12/03 03:12:54;;;;;;;14.40;6.80;;;;;;;9.56;61.01;99432.82;117323;1185;23435;-59
2021/12/03 03:15:22;;;;;;;12.80;7.40;;;;;;;9.56;60.94;99436.34;117387;1183;22737;-56
2021/12/03 03:17:50;;;;;;;12.70;7.60;;;;;;;9.55;60.94;99433.55;117347;1184;21858;-56
2021/12/03 03:20:19;;;;;;;12.30;7.50;;;;;;;9.46;60.93;99439.02;117339;1182;22909;-57
2021/12/03 03:22:48;;;;;;;12.10;6.70;;;;;;;9.42;60.97;99439.45;117342;1183;22696;-56
2021/12/03 03:25:17;;;;;;;12.30;7.50;;;;;;;9.38;60.90;99437.44;117134;1187;21856;-60
2021/12/03 03:27:46;;;;;;;13.30;7.00;;;;;;;9.30;60.97;99438.48;117313;1186;24157;-60
2021/12/03 03:30:15;;;;;;;17.70;6.80;;;;;;;9.24;60.92;99441.41;117352;1185;21860;-60
2021/12/03 03:32:43;;;;;;;16.30;6.50;;;;;;;9.15;61.06;99446.16;117381;1186;23460;-59
2021/12/03 03:35:11;;;;;;;16.20;7.80;;;;;;;9.09;61.02;99446.98;117528;1185;22313;-56
2021/12/03 03:37:40;;;;;;;13.30;7.00;;;;;;;9.06;61.01;99446.51;117356;1185;21867;-60
2021/12/03 03:40:10;;;;;;;12.90;6.40;;;;;;;9.04;60.90;99453.91;117375;1185;24203;-60
2021/12/03 03:42:38;;;;;;;10.50;6.60;;;;;;;9.04;61.09;99450.78;117361;1183;21857;-60
2021/12/03 03:45:09;;;;;;;12.70;7.20;;;;;;;9.03;60.98;99449.20;117322;1184;21855;-54
2021/12/03 03:47:37;;;;;;;13.60;6.50;;;;;;;9.04;61.16;99454.27;117332;1186;22935;-60
2021/12/03 03:50:06;;;;;;;14.30;6.90;;;;;;;9.07;61.16;99454.55;117360;1186;21854;-59
2021/12/03 03:52:39;;;;;;;14.70;6.30;;;;;;;9.06;61.09;99454.73;117282;1184;21864;-55
2021/12/03 03:55:10;;;;;;;10.60;6.50;;;;;;;9.06;61.13;99451.59;117309;1182;21873;-56
2021/12/03 03:57:39;;;;;;;13.40;5.80;;;;;;;9.04;61.03;99448.85;117327;1184;24160;-55
2021/12/03 04:00:09;;;;;;;18.70;6.30;;;;;;;9.04;60.95;99449.56;117344;1185;21842;-55
2021/12/03 04:02:37;;;;;;;11.60;5.80;;;;;;;9.01;61.00;99449.42;117291;1183;23609;-55
2021/12/03 04:05:06;;;;;;;15.20;6.30;;;;;;;9.00;60.85;99445.78;117283;1184;23451;-60
2021/12/03 04:07:34;;;;;;;10.50;5.40;;;;;;;8.99;61.07;99442.13;117347;1185;24218;-56
2021/12/03 04:10:04;;;;;;;11.20;5.20;;;;;;;9.00;61.11;99440.86;117337;1186;21854;-55
2021/12/03 04:12:32;;;;;;;10.90;5.60;;;;;;;9.02;61.16;99432.98;117399;1185;21856;-59
2021/12/03 04:15:03;;;;;;;10.10;5.40;;;;;;;9.03;61.22;99431.17;117370;1175;21858;-60
2021/12/03 04:17:33;;;;;;;10.70;5.00;;;;;;;9.08;61.11;99428.63;117386;1176;21847;-59
2021/12/03 04:20:01;;;;;;;9.10;5.60;;;;;;;9.13;61.24;99428.52;117328;1184;21928;-55
2021/12/03 04:22:32;;;;;;;10.60;5.30;;;;;;;9.17;61.21;99423.70;117324;1182;21873;-55
2021/12/03 04:25:00;;;;;;;10.20;5.70;;;;;;;9.21;61.20;99415.58;117328;1184;24252;-59
2021/12/03 04:27:29;;;;;;;10.70;4.90;;;;;;;9.24;61.28;99415.52;117330;1182;21869;-59
2021/12/03 04:29:58;;;;;;;8.90;5.20;;;;;;;9.26;61.21;99414.95;117368;1185;21857;-59
2021/12/03 04:32:26;;;;;;;15.10;5.50;;;;;;;9.27;61.11;99422.27;117342;1188;21870;-55
2021/12/03 04:34:54;;;;;;;11.00;5.10;;;;;;;9.27;61.19;99425.96;117288;1181;24168;-54
2021/12/03 04:37:22;;;;;;;11.10;5.40;;;;;;;9.26;61.13;99430.70;117363;1183;22621;-54
2021/12/03 04:39:51;;;;;;;9.60;5.10;;;;;;;9.25;61.09;99423.73;117288;1186;22912;-55
2021/12/03 04:42:19;;;;;;;11.30;5.70;;;;;;;9.23;61.16;99418.33;117336;1184;23433;-60
2021/12/03 04:44:47;;;;;;;10.00;4.70;;;;;;;9.21;61.14;99413.64;117103;1187;21855;-60
2021/12/03 04:47:15;;;;;;;11.50;5.40;;;;;;;9.19;61.16;99410.19;117348;1183;21859;-60
2021/12/03 04:49:44;;;;;;;13.30;4.60;;;;;;;9.17;61.17;99407.80;117395;1186;21857;-60
2021/12/03 04:52:13;;;;;;;11.80;4.60;;;;;;;9.15;61.18;99402.94;117333;1181;23469;-60
2021/12/03 04:54:42;;;;;;;14.40;5.40;;;;;;;9.13;61.11;99403.30;117268;1184;21859;-59
2021/12/03 04:57:10;;;;;;;12.30;5.10;;;;;;;9.11;61.18;99405.13;117270;1186;21867;-59
2021/12/03 04:59:39;;;;;;;11.50;5.00;;;;;;;9.10;61.05;99410.37;117271;1186;21858;-54
2021/12/03 05:02:07;;;;;;;11.60;5.20;;;;;;;9.11;60.96;99413.16;117276;1182;22318;-55
2021/12/03 05:04:37;;;;;;;10.40;4.60;;;;;;;9.11;61.03;99408.80;117314;1184;23455;-61
2021/12/03 05:09:37;;;;;;;10.40;4.80;;;;;;;9.02;60.92;99404.27;117375;1182;21855;-55
2021/12/03 05:12:06;;;;;;;12.20;5.80;;;;;;;8.96;60.84;99402.11;117283;1185;23433;-59
2021/12/03 05:14:34;;;;;;;25.80;7.90;;;;;;;8.89;60.91;99398.93;117223;1184;22769;-55
2021/12/03 05:17:03;;;;;;;17.80;5.90;;;;;;;8.76;60.83;99397.64;117299;1184;22635;-60
2021/12/03 05:19:33;;;;;;;14.40;5.50;;;;;;;8.62;60.90;99401.58;117322;1185;23471;-55
2021/12/03 05:22:10;;;;;;;12.80;4.30;;;;;;;8.54;61.02;99405.95;117298;1186;21839;-54
2021/12/03 05:24:45;;;;;;;7.70;4.30;;;;;;;8.49;61.17;99404.10;117333;1186;21872;-60
2021/12/03 05:27:14;;;;;;;10.40;4.00;;;;;;;8.49;61.04;99406.73;117346;1186;21875;-60
2021/12/03 05:29:43;;;;;;;10.90;5.20;;;;;;;8.51;61.23;99406.70;117421;1185;21859;-55
2021/12/03 05:32:11;;;;;;;10.90;4.90;;;;;;;8.53;61.15;99402.11;117351;1186;21857;-55
2021/12/03 05:34:39;;;;;;;13.80;5.10;;;;;;;8.55;61.14;99402.08;117368;1186;21843;-60
2021/12/03 05:37:08;;;;;;;6.70;4.20;;;;;;;8.56;61.07;99400.66;117348;1186;22903;-59
2021/12/03 05:39:36;;;;;;;9.80;4.60;;;;;;;8.56;61.01;99403.46;117308;1188;21848;-54
2021/12/03 05:42:05;;;;;;;9.50;4.40;;;;;;;8.53;61.07;99411.72;117385;1186;22913;-58
2021/12/03 05:44:34;;;;;;;10.70;5.10;;;;;;;8.53;61.09;99422.22;117350;1185;24145;-60
2021/12/03 05:47:03;;;;;;;11.10;5.60;;;;;;;8.53;61.23;99431.50;117337;1184;22561;-54
2021/12/03 05:49:32;;;;;;;15.10;5.30;;;;;;;8.55;61.08;99433.38;117189;1185;23441;-59
2021/12/03 05:52:00;;;;;;;10.00;4.40;;;;;;;8.54;61.18;99431.99;117323;1186;22157;-59
2021/12/03 05:54:29;;;;;;;11.30;4.60;;;;;;;8.54;61.26;99429.53;117311;1186;21902;-59
2021/12/03 05:56:58;;;;;;;10.60;4.40;;;;;;;8.56;61.22;99426.02;117391;1184;21857;-60
2021/12/03 05:59:27;;;;;;;8.60;4.10;;;;;;;8.64;61.51;99417.98;117279;1186;21858;-60
2021/12/03 06:01:55;;;;;;;12.10;4.70;;;;;;;8.75;61.48;99418.46;117377;1186;23434;-54
2021/12/03 06:04:23;;;;;;;6.70;4.00;;;;;;;8.87;61.58;99415.25;117351;1186;22121;-59
2021/12/03 06:06:52;;;;;;;12.30;5.00;;;;;;;9.00;61.57;99411.50;117300;1186;23781;-59
2021/12/03 06:09:20;;;;;;;7.40;3.80;;;;;;;9.10;61.54;99413.02;117327;1186;21855;-59
2021/12/03 06:11:48;;;;;;;7.60;4.10;;;;;;;9.19;61.64;99410.19;117370;1188;21858;-54
2021/12/03 06:14:17;;;;;;;9.70;3.90;;;;;;;9.28;61.67;99408.08;117299;1188;21853;-57
2021/12/03 06:16:47;;;;;;;;;;;;;;;9.35;61.62;99409.30;117326;1182;21834;-59
2021/12/03 06:19:16;;;;;;;10.40;4.30;;;;;;;9.43;61.66;99404.94;117434;1184;21868;-55
2021/12/03 06:21:44;;;;;;;9.10;3.90;;;;;;;9.48;61.65;99407.77;117345;1184;21855;-55
2021/12/03 06:24:13;;;;;;;10.40;3.90;;;;;;;9.55;61.58;99405.17;117388;1185;21854;-56
2021/12/03 06:26:41;;;;;;;10.80;4.00;;;;;;;9.61;61.70;99403.46;117413;1185;21863;-56
2021/12/03 06:29:09;;;;;;;11.30;4.30;;;;;;;9.68;61.66;99402.26;117367;1185;21887;-56
2021/12/03 06:31:37;;;;;;;7.00;3.80;;;;;;;9.74;61.61;99403.48;117384;1185;21865;-56
2021/12/03 06:34:05;;;;;;;8.20;4.30;;;;;;;9.82;61.72;99408.73;117326;1185;21917;-56
2021/12/03 06:36:34;;;;;;;8.60;4.40;;;;;;;9.90;61.61;99413.80;117349;1185;21859;-56
2021/12/03 06:39:02;;;;;;;6.70;3.70;;;;;;;9.96;61.74;99410.13;117464;1185;21858;-54
2021/12/03 06:41:31;;;;;;;9.60;3.80;;;;;;;10.02;61.58;99400.33;117409;1186;23239;-57
2021/12/03 06:43:59;;;;;;;9.60;3.70;;;;;;;10.07;61.51;99403.37;117310;1184;21856;-55
2021/12/03 06:46:30;;;;;;;8.90;3.80;;;;;;;10.11;61.56;99409.77;117328;1186;21853;-59
2021/12/03 06:48:58;;;;;;;10.30;3.40;;;;;;;10.16;61.61;99409.30;117335;1185;21882;-56
2021/12/03 06:51:27;;;;;;;6.90;3.40;;;;;;;10.23;61.67;99413.48;117374;1184;21908;-55
2021/12/03 06:54:02;;;;;;;12.10;4.30;;;;;;;10.29;61.67;99413.86;117383;1185;22912;-55
2021/12/03 06:56:43;;;;;;;11.80;4.00;;;;;;;10.35;61.60;99412.66;117312;1181;21859;-55
2021/12/03 06:59:12;;;;;;;10.50;3.70;;;;;;;10.38;61.51;99408.88;117362;1186;22916;-55
2021/12/03 07:01:41;;;;;;;8.10;3.20;;;;;;;10.42;61.61;99407.04;117359;1186;21953;-58
2021/12/03 07:04:10;;;;;;;10.30;3.60;;;;;;;10.47;61.64;99408.66;117398;1184;23433;-56
2021/12/03 07:06:41;;;;;;;11.10;3.30;;;;;;;10.54;61.82;99407.08;117368;1184;23672;-56
2021/12/03 07:09:09;;;;;;;8.70;3.60;;;;;;;10.61;61.72;99402.50;117322;1185;21845;-58
2021/12/03 07:11:37;;;;;;;7.30;4.20;;;;;;;10.70;61.71;99406.80;117360;1186;22122;-58
2021/12/03 07:14:06;;;;;;;8.30;4.20;;;;;;;10.75;61.72;99406.14;117364;1182;21886;-56
2021/12/03 07:16:34;;;;;;;7.00;3.10;;;;;;;11.13;60.93;99402.20;117390;1181;21855;-58
2021/12/03 07:19:03;;;;;;;6.00;3.10;;;;;;;10.97;61.20;99404.47;117391;1185;21871;-58
2021/12/03 07:21:31;;;;;;;7.10;3.50;;;;;;;11.00;61.18;99409.45;117332;1185;21857;-59
2021/12/03 07:23:59;;;;;;;6.70;3.10;;;;;;;10.92;61.47;99413.37;117334;1184;21847;-59
2021/12/03 07:26:28;;;;;;;7.90;3.20;;;;;;;10.90;61.47;99416.61;117342;1186;21859;-57
2021/12/03 07:28:56;;;;;;;6.60;2.70;;;;;;;10.92;61.51;99421.97;117367;1182;21852;-59
2021/12/03 07:31:25;;;;;;;8.40;3.40;;;;;;;11.01;61.32;99423.64;117349;1184;21868;-59
2021/12/03 07:33:57;;;;;;;8.10;3.40;;;;;;;10.94;61.39;99424.03;117280;1186;22912;-59
2021/12/03 07:36:25;;;;;;;6.10;2.80;;;;;;;10.95;61.29;99430.31;117379;1186;23091;-59
2021/12/03 07:38:54;;;;;;;7.90;3.20;;;;;;;10.92;61.37;99424.42;117364;1186;21859;-56
2021/12/03 07:41:22;;;;;;;5.20;2.60;;;;;;;10.91;61.41;99422.20;117304;1185;22957;-59
2021/12/03 07:43:50;;;;;;;5.30;2.50;;;;;;;10.90;61.46;99424.14;117336;1185;22082;-59
2021/12/03 07:46:18;;;;;;;10.30;3.50;;;;;;;12.32;58.69;99418.52;117421;1185;21855;-59
2021/12/03 07:48:48;;;;;;;6.80;2.90;;;;;;;12.83;57.26;99403.36;117363;1184;23463;-56
2021/12/03 07:51:16;;;;;;;6.40;3.00;;;;;;;12.01;58.91;99409.56;117331;1185;21861;-56
2021/12/03 07:53:45;;;;;;;5.70;2.80;;;;;;;11.23;60.47;99419.84;117316;1185;21848;-59
2021/12/03 07:56:13;;;;;;;8.70;3.00;;;;;;;11.04;60.85;99421.44;117290;1182;21881;-57
2021/12/03 07:58:41;;;;;;;6.20;3.20;;;;;;;10.97;61.14;99421.84;117334;1185;21859;-56
2021/12/03 08:01:09;;;;;;;10.30;4.40;;;;;;;10.91;60.98;99417.09;117355;1183;21853;-59
2021/12/03 08:03:38;;;;;;;8.90;3.60;;;;;;;10.87;61.08;99419.84;117332;1184;21855;-57
2021/12/03 08:06:10;;;;;;;8.60;4.20;;;;;;;10.85;60.88;99423.05;117365;1184;21854;-59
2021/12/03 08:08:39;;;;;;;13.90;3.50;;;;;;;10.81;60.98;99422.80;117400;1184;23443;-58
2021/12/03 08:11:08;;;;;;;7.10;3.30;;;;;;;10.77;61.16;99424.69;117342;1185;23290;-56
2021/12/03 08:13:56;;;;;;;8.80;3.50;;;;;;;10.76;61.14;99431.21;117305;1185;21967;-59
2021/12/03 08:16:24;;;;;;;8.90;4.30;;;;;;;10.75;61.32;99428.78;117390;1185;21870;-58
2021/12/03 08:18:52;;;;;;;6.60;3.60;;;;;;;10.76;61.33;99428.05;117301;1184;23065;-59
2021/12/03 08:21:20;;;;;;;9.60;4.10;;;;;;;10.81;61.49;99433.34;117430;1185;21853;-59
2021/12/03 08:23:49;;;;;;;8.70;3.30;;;;;;;10.91;61.63;99427.08;117302;1184;23436;-59
2021/12/03 08:26:17;;;;;;;8.90;3.90;;;;;;;11.07;61.85;99423.62;117339;1184;24161;-60
2021/12/03 08:28:45;;;;;;;7.20;3.20;;;;;;;11.29;62.06;99423.70;117321;1184;21866;-57
2021/12/03 08:31:15;;;;;;;9.50;3.40;;;;;;;11.49;61.92;99417.27;117304;1188;21848;-57
2021/12/03 08:33:44;;;;;;;4.80;2.10;;;;;;;11.73;62.13;99412.81;117295;1186;22629;-57
2021/12/03 08:36:12;;;;;;;5.30;2.60;;;;;;;11.99;62.08;99405.14;117382;1186;21895;-57
2021/12/03 08:38:40;;;;;;;6.40;2.80;;;;;;;12.22;61.98;99402.29;117288;1189;21848;-57
2021/12/03 08:41:13;;;;;;;8.90;4.60;;;;;;;12.40;61.99;99401.83;117342;1185;21865;-57
2021/12/03 08:43:42;;;;;;;6.80;2.50;;;;;;;12.55;61.87;99397.77;117292;1186;21866;-60
2021/12/03 08:46:24;;;;;;;5.20;2.50;;;;;;;12.68;61.90;99395.88;117322;1183;22450;-59
2021/12/03 08:48:53;;;;;;;7.10;2.10;;;;;;;13.51;60.29;99383.71;117302;1185;23634;-57
2021/12/03 08:51:31;;;;;;;4.10;2.30;;;;;;;13.05;60.97;99379.38;117311;1185;21968;-57
2021/12/03 08:56:46;;;;;;;4.60;2.60;;;;;;;12.92;61.59;99360.52;117307;1181;21859;-57
2021/12/03 08:59:15;;;;;;;4.50;2.20;;;;;;;13.01;61.80;99361.02;117354;1182;21917;-59
2021/12/03 09:01:44;;;;;;;4.20;1.70;;;;;;;13.17;62.01;99358.82;117395;1185;21856;-57
2021/12/03 09:04:16;;;;;;;6.00;2.00;;;;;;;13.33;62.03;99359.61;117335;1185;22940;-59
2021/12/03 09:06:44;;;;;;;5.00;2.40;;;;;;;13.49;61.85;99355.14;117359;1184;24171;-59
2021/12/03 09:09:12;;;;;;;5.30;2.40;;;;;;;13.62;61.73;99346.67;117353;1185;21864;-58
2021/12/03 09:11:40;;;;;;;10.60;5.50;;;;;;;13.71;61.75;99346.30;117324;1184;21848;-56
2021/12/03 09:14:45;;;;;;;9.40;5.20;;;;;;;13.75;61.52;99351.42;117319;1185;23455;-56
2021/12/03 09:22:42;;;;;;;9.40;5.10;;;;;;;13.62;61.21;99361.14;117339;1185;21849;-57
2021/12/03 09:25:15;;;;;;;13.30;7.50;;;;;;;13.53;61.17;99362.38;117274;1186;22913;-58
2021/12/03 09:27:44;;;;;;;23.20;13.90;;;;;;;13.48;61.15;99362.04;117396;1185;22936;-59
2021/12/03 09:30:14;;;;;;;17.90;9.80;;;;;;;13.49;61.18;99358.64;117403;1185;21858;-59
2021/12/03 09:32:47;;;;;;;9.70;5.50;;;;;;;13.49;61.07;99356.37;117379;1185;22930;-56
2021/12/03 09:35:15;;;;;;;8.40;4.70;;;;;;;13.51;61.23;99352.04;117310;1185;23563;-58
2021/12/03 09:37:43;;;;;;;8.70;3.50;;;;;;;13.59;61.43;99354.05;117333;1185;23439;-56
2021/12/03 09:40:19;;;;;;;9.10;4.40;;;;;;;13.68;61.45;99358.77;117447;1186;21856;-57
2021/12/03 09:42:47;;;;;;;5.60;3.00;;;;;;;13.82;61.67;99364.55;117323;1185;21861;-57
2021/12/03 09:45:15;;;;;;;6.10;3.20;;;;;;;13.97;61.58;99354.73;117306;1186;21998;-59
2021/12/03 09:47:44;;;;;;;8.30;3.30;;;;;;;14.16;61.68;99352.87;117328;1184;21867;-58
2021/12/03 09:50:14;;;;;;;9.40;3.90;;;;;;;14.31;61.76;99354.89;117382;1186;21847;-57
2021/12/03 09:53:50;;;;;;;130.50;9.70;;;;;;;14.44;61.70;99354.64;117341;1188;21865;-59
2021/12/03 09:55:32;;;;;;;20.20;3.20;;;;;;;14.56;61.63;99353.93;117302;1185;21859;-60
2021/12/03 10:00:37;;;;;;;95.00;8.50;;;;;;;14.69;61.22;99340.84;117409;1184;21937;-58
2021/12/03 10:15:13;;;;;;;6.30;2.50;;;;;;;14.46;61.13;99346.62;117331;1185;23538;-58
2021/12/03 10:34:31;;;;;;;9.80;3.80;;;;;;;15.24;61.68;99345.86;117287;1185;21860;-58
2021/12/03 10:39:54;;;;;;;6.90;2.80;;;;;;;15.50;61.54;99339.50;117362;1185;23447;-58
2021/12/03 10:50:42;;;;;;;8.70;4.10;;;;;;;15.92;61.46;99322.78;117341;1185;21858;-57
2021/12/03 10:56:39;;;;;;;3.20;1.70;;;;;;;15.98;61.28;99310.08;116981;1189;21857;-57
2021/12/03 12:21:58;;;;;;;4.00;1.70;;;;;;;16.93;57.46;99306.27;117294;1182;21859;-56
2021/12/03 14:15:06;;;;;;;;;;;;;;;12.45;59.78;99467.63;117203;1187;21841;-55
2021/12/03 14:36:53;;;;;;;7.70;5.00;;;;;;;11.78;59.57;99503.54;117276;1186;21850;-56
2021/12/03 14:44:41;;;;;;;9.60;5.40;;;;;;;11.56;59.75;99516.50;117301;1185;21862;-56
2021/12/03 14:53:57;;;;;;;15.40;10.10;;;;;;;11.40;59.63;99534.18;117278;1183;23466;-58
2021/12/03 14:55:47;;;;;;;13.10;6.30;;;;;;;11.35;59.72;99535.21;117219;1186;22901;-56
2021/12/03 14:58:20;;;;;;;7.50;4.50;;;;;;;11.33;59.78;99541.79;117264;1186;21898;-59
2021/12/03 15:01:00;;;;;;;7.80;4.60;;;;;;;11.31;59.78;99546.72;117258;1184;21869;-56
2021/12/03 15:03:51;;;;;;;5.50;3.80;;;;;;;11.33;59.84;99553.01;117109;1182;21899;-56
2021/12/03 15:22:17;;;;;;;7.20;3.90;;;;;;;11.50;59.83;99578.69;117369;1183;24135;-56
2021/12/03 15:33:21;;;;;;;31.30;14.90;;;;;;;11.53;59.92;99594.25;117295;1185;23557;-59
2021/12/03 15:54:33;;;;;;;17.50;11.00;;;;;;;11.02;59.60;99640.41;117261;1186;21860;-58
2021/12/03 16:10:20;;;;;;;14.90;11.00;;;;;;;10.50;59.54;99702.73;117310;1185;21885;-56
2021/12/03 16:23:28;;;;;;;17.20;11.20;;;;;;;10.23;59.65;99717.48;117349;1185;21857;-58
2021/12/03 16:46:01;;;;;;;21.50;15.60;;;;;;;10.00;59.69;99756.89;117351;1185;22921;-56
2021/12/03 16:53:27;;;;;;;27.30;17.50;;;;;;;9.90;59.65;99762.34;117325;1186;24145;-59
2021/12/03 16:56:20;;;;;;;25.10;16.70;;;;;;;9.89;59.70;99769.03;117337;1185;22922;-59
2021/12/03 16:58:49;;;;;;;22.70;16.20;;;;;;;9.86;59.68;99772.05;117343;1184;23440;-56
2021/12/03 17:15:24;;;;;;;26.00;17.70;;;;;;;9.66;59.73;99791.88;116874;1189;22629;-56
2021/12/03 17:48:21;;;;;;;19.20;11.60;;;;;;;9.59;59.64;99885.35;117078;1186;24235;-58
2021/12/03 18:58:05;;;;;;;39.40;26.60;;;;;;;8.72;59.17;100016.56;117250;1186;21848;-58
2021/12/03 19:00:43;;;;;;;41.20;26.70;;;;;;;8.63;59.20;100033.96;117312;1182;23553;-56
2021/12/03 19:03:23;;;;;;;39.10;23.90;;;;;;;8.53;59.29;100035.80;117307;1186;21845;-56
2021/12/03 19:06:42;;;;;;;28.50;19.40;;;;;;;8.43;59.21;100039.00;117299;1186;21856;-58
2021/12/03 19:12:01;;;;;;;33.20;20.10;;;;;;;8.27;59.24;100056.46;117359;1185;21848;-58
2021/12/03 19:14:06;;;;;;;26.60;16.40;;;;;;;8.19;59.08;100065.95;117207;1186;21858;-55
2021/12/03 19:16:35;;;;;;;24.10;17.00;;;;;;;8.13;59.13;100071.42;117283;1186;23445;-58
2021/12/03 19:19:04;;;;;;;20.80;14.20;;;;;;;8.06;59.09;100077.40;117288;1186;21860;-59
2021/12/03 19:21:38;;;;;;;19.70;13.60;;;;;;;8.02;59.41;100082.67;117295;1186;21861;-56
2021/12/03 19:24:08;;;;;;;21.30;15.80;;;;;;;8.00;59.05;100087.92;117387;1185;21864;-59
2021/12/03 19:26:36;;;;;;;21.40;15.60;;;;;;;7.97;59.17;100088.98;117247;1186;24249;-56
2021/12/03 19:29:05;;;;;;;21.50;14.80;;;;;;;7.95;59.12;100101.77;117249;1186;22623;-59
2021/12/03 19:31:35;;;;;;;;;;;;;;;7.94;59.11;100118.02;117255;1186;22901;-59
2021/12/03 19:34:07;;;;;;;21.70;14.40;;;;;;;7.95;59.33;100121.52;117378;1183;21909;-59
2021/12/03 19:36:40;;;;;;;18.00;12.90;;;;;;;7.96;59.33;100122.73;117326;1186;24163;-56
2021/12/03 19:39:09;;;;;;;15.20;10.40;;;;;;;7.91;59.22;100128.70;117282;1186;21855;-55
2021/12/03 19:44:15;;;;;;;13.80;8.40;;;;;;;7.84;59.18;100133.09;117353;1186;23686;-55
2021/12/03 19:46:46;;;;;;;9.70;7.30;;;;;;;7.78;58.88;100136.44;117295;1188;21856;-55